Tiempo atmosférico en la estación meteorológica de Daroca, Zaragoza (779 m.)



Fecha
DESCASC
Temp. máxima en grados centígrados (hora)
DESCASC
Temp. mínima en grados centígrados (hora)
DESCASC
Temp. media en grados centígrados
DESCASC
Racha de viento máxima en m/sg (hora)
DESCASC
Velocidad máxima media en intervalos de 10 minutos(hora)
DESCASC
Precipitaciones diarias en mm
DESCASC
Precipitaciones de 00:00 a 06:00 en mm
DESCASC
Precipitaciones de 06:00 a 12:00 en mm
DESCASC
Precipitaciones de 12:00 a 18:00 en mm
DESCASC
Precipitaciones de 18:00 a 24:00 en mm
DESCASC
22-01-2020 3.7 (14:10) 0.6 (00:00) 2.2 5 (11:20) 1.94 (11:20) 0 0 0 0 0
21-01-2020 2.1 (16:10) -1.1 (00:20) 0.5 8.61 (16:20) 3.61 (16:20) 64.8 3.2 10 19.2 32.4
20-01-2020 -0.3 (00:00) -1.4 (02:40) -0.8 8.61 (12:50) 3.33 (12:00) 6 0 0 2.6 3.4
19-01-2020 5 (00:30) -0.3 (00:00) 2.3 7.78 (13:10) 2.78 (14:10) 3.8 0.6 2.6 0.6 0
18-01-2020 10.8 (16:40) -2.4 (-00:0) 4.2 11.11 (22:00) 4.44 (22:00) 1.4 0 0 0 1.4
17-01-2020 10.9 (15:30) -0.7 (-00:0) 5.1 10 (13:40) 5.28 (14:50) 0 0 0 0 0
16-01-2020 14.1 (15:40) -1.1 (-00:0) 6.5 8.61 (15:50) 4.17 (15:50) 0 0 0 0 0
15-01-2020 13 (15:10) -2.1 (-00:0) 5.5 9.17 (13:50) 5.28 (13:50) 0 0 0 0 0
14-01-2020 9.6 (15:30) -5.2 (-00:0) 2.2 6.11 (14:20) 2.78 (14:20) 0 0 0 0 0
13-01-2020 10.8 (15:10) -7.4 (-00:0) 1.7 6.11 (22:30) 2.78 (14:10) 0 0 0 0 0
12-01-2020 10 (15:40) -7.9 (08:20) 1 3.89 (15:30) 2.22 (15:30) 0 0 0 0 0
11-01-2020 10.7 (15:20) -5.2 (-00:0) 2.8 4.44 (14:50) 1.94 (14:50) 0 0 0 0 0
10-01-2020 8.5 (15:40) 0.7 (00:00) 4.6 10 (15:30) 3.61 (15:20) 0.8 0.8 0 0 0
09-01-2020 15.2 (15:30) -2.6 (-00:0) 6.3 5.28 (16:10) 2.78 (16:00) 0 0 0 0 0
08-01-2020 14.5 (15:10) -3.1 (-00:0) 5.7 3.33 (15:30) 1.67 (15:30) 0 0 0 0 0
07-01-2020 14.7 (15:20) -5.5 (-00:0) 4.6 2.5 (16:10) 1.39 (16:10) 0 0 0 0 0
06-01-2020 14.5 (15:50) -4.8 (-00:0) 4.8 3.06 (14:50) 1.67 (14:20) 0 0 0 0 0
05-01-2020 13.5 (15:20) -5.1 (-00:0) 4.2 2.5 (16:20) 1.67 (16:20) 0 0 0 0 0
04-01-2020 7.9 (15:50) -2.4 (-00:0) 2.8 2.5 (20:30) 1.11 (20:30) 0 0 0 0 0
03-01-2020 8.7 (15:50) -4.4 (-00:0) 2.1 5.83 (14:40) 2.22 (14:00) 0 0 0 0 0
02-01-2020 15 (15:30) -5.2 (-00:0) 4.9 3.33 (15:40) 2.22 (15:50) 0 0 0 0 0
01-01-2020 14.5 (15:30) -5.5 (-00:0) 4.5 2.78 (15:00) 1.11 (15:00) 0 0 0 0 0
31-12-2019 13.9 (14:50) -4 (-00:0) 4.9 3.33 (16:10) 1.67 (16:10) 0 0 0 0 0
30-12-2019 -- (--) -- (--) -- -- (--) -- (--) -- 0 0 0 --
29-12-2019 14.3 (15:20) -4.2 (-00:0) 5.1 2.22 (08:40) 1.11 (16:50) 0 0 0 0 0
28-12-2019 13.9 (15:30) -6 (-00:0) 3.9 2.22 (11:10) 1.11 (10:50) 0 0 0 0 0
27-12-2019 9.8 (15:20) -2.9 (-00:0) 3.5 4.17 (08:30) 1.94 (13:50) 0 0 0 0 0

Gráficas

Temp. máximas Temp. mínimas Temp. medias Precipitaciones Rachas de viento máximas Velocidades máximas media en intervalos de 10 minutos

Datos horarios

Fecha y hora oficial Temperatura (ºC) Velocidad del viento (km/h) Dirección del viento Racha (km/h) Dirección de racha Precipitación (mm) Presión (hPa) Tendencia (hPa) Humedad (%)
2020-01-25 23:00:00 3.1 0 Calma 6 Nordeste 0.2 -- -- 96
2020-01-25 22:00:00 3.5 0 Calma 5 Nordeste 0.2 -- -- 95
2020-01-25 21:00:00 3.8 2 Nordeste 5 Nordeste 0.4 -- -- 95
2020-01-25 20:00:00 4.1 3 Nordeste 8 Este 0.2 -- -- 94
2020-01-25 19:00:00 4.7 0 Calma 6 Este 0.2 -- -- 92
2020-01-25 18:00:00 5.6 3 Este 7 Nordeste 0.6 -- -- 90
2020-01-25 17:00:00 7.4 0 Calma 12 Sudeste 0.4 -- -- 83
2020-01-25 16:00:00 8.8 0 Calma 12 Sudeste 0 -- -- 74
2020-01-25 15:00:00 9.7 3 Oeste 7 Noroeste 0 -- -- 72
2020-01-25 14:00:00 8.9 3 Sudeste 16 Sudoeste 0 -- -- 75
2020-01-25 13:00:00 8.3 5 Sudeste 13 Sur 0 -- -- 79
2020-01-25 12:00:00 6.6 2 Sur 8 Nordeste 0 -- -- 85
2020-01-25 11:00:00 5.3 3 Nordeste 8 Nordeste 0.2 -- -- 92
2020-01-25 10:00:00 4 3 Este 10 Sudeste 1 -- -- 94
2020-01-25 09:00:00 3.8 3 Noroeste 10 Norte 0 -- -- 93
2020-01-25 08:00:00 2.4 0 Calma 7 Sudeste 0 -- -- 96
2020-01-25 07:00:00 1.7 3 Nordeste 6 Sudeste 0 -- -- 96
2020-01-25 06:00:00 1.9 4 Este 10 Este 0 -- -- 96
2020-01-25 05:00:00 2.5 2 Este 7 Norte 0 -- -- 97
2020-01-25 04:00:00 2 2 Este 9 Nordeste 0 -- -- 95
2020-01-25 03:00:00 1.9 3 Este 5 Nordeste 0 -- -- 95
2020-01-25 02:00:00 2.1 2 Este 7 Este 0 -- -- 95
2020-01-25 01:00:00 2.1 3 Nordeste 8 Nordeste 0 -- -- 95
2020-01-25 00:00:00 2.2 2 Nordeste 6 Norte 0 -- -- 94
2020-01-24 23:00:00 2.2 2 Este 9 Este 0 -- -- 94
2020-01-24 22:00:00 2.4 0 Calma 6 Nordeste 0 -- -- 93
2020-01-24 21:00:00 2.8 3 Nordeste 5 Norte 0 -- -- 92
2020-01-24 20:00:00 3.1 0 Calma 8 Nordeste 0 -- -- 90
2020-01-24 19:00:00 3.6 3 Este 8 Nordeste 0 -- -- 88
2020-01-24 18:00:00 5.5 0 Calma 5 Este 0 -- -- 82
2020-01-24 17:00:00 6.6 0 Calma 4 Sudeste 0 -- -- 80
2020-01-24 16:00:00 6.7 0 Calma 5 Sudoeste 0 -- -- 78
2020-01-24 15:00:00 8 0 Calma 4 Oeste 0 -- -- 75
2020-01-24 14:00:00 7.1 3 Oeste 6 Sudeste 0 -- -- 77
2020-01-24 13:00:00 6 2 Nordeste 6 Nordeste 0 -- -- 80
2020-01-24 12:00:00 4.6 3 Oeste 7 Oeste 0 -- -- 86
2020-01-24 11:00:00 4 2 Oeste 6 Sudoeste 0 -- -- 89
2020-01-24 10:00:00 1.6 3 Este 5 Nordeste 0 -- -- 96
2020-01-24 09:00:00 0.3 2 Nordeste 8 Este 0 -- -- 97
2020-01-24 08:00:00 0.3 4 Este 9 Este 0 -- -- 96
2020-01-24 07:00:00 0.4 5 Nordeste 10 Nordeste 0 -- -- 97
2020-01-24 06:00:00 0 2 Nordeste 7 Sudeste 0 -- -- 96
2020-01-24 05:00:00 0.6 2 Nordeste 8 Este 0 -- -- 95
2020-01-24 04:00:00 2.6 0 Calma 7 Nordeste 0 -- -- 92
2020-01-24 03:00:00 1.4 3 Nordeste 8 Nordeste 0 -- -- 97
2020-01-24 02:00:00 1.5 3 Nordeste 5 Norte 0 -- -- 95
2020-01-24 01:00:00 2 0 Calma 5 Sudeste 0 -- -- 95
2020-01-24 00:00:00 2.3 2 Este 8 Norte 0 -- -- 94
2020-01-23 23:00:00 2 3 Nordeste 6 Nordeste 0 -- -- 94
2020-01-23 22:00:00 2.1 3 Nordeste 6 Nordeste 0 -- -- 94
2020-01-23 21:00:00 2.1 2 Este 6 Nordeste 0 -- -- 93
2020-01-23 20:00:00 2.3 2 Nordeste 5 Nordeste 0 -- -- 92
2020-01-23 19:00:00 2.8 2 Este 8 Nordeste 0 -- -- 89
2020-01-23 18:00:00 3.8 2 Nordeste 6 Nordeste 0 -- -- 86
2020-01-23 17:00:00 5.3 0 Calma 6 Sur 0 -- -- 81
2020-01-23 16:00:00 7 2 Este 7 Este 0 -- -- 75
2020-01-23 15:00:00 7.6 2 Sudeste 7 Sudeste 0 -- -- 73
2020-01-23 14:00:00 5.2 3 Este 9 Nordeste 0 -- -- 81
2020-01-23 13:00:00 4.2 3 Norte 10 Sudeste 0 -- -- 87
2020-01-23 12:00:00 3.4 4 Nordeste 15 Sur 0 -- -- 88
2020-01-23 11:00:00 2.4 0 Calma 7 Oeste 0 -- -- 100
2020-01-23 10:00:00 1.9 0 Calma 6 Oeste 0 -- -- 100
2020-01-23 09:00:00 0.4 0 Calma 6 Este 0 -- -- 100
2020-01-23 08:00:00 0.2 0 Calma 5 Este 0 -- -- 100
2020-01-23 07:00:00 0.4 0 Calma 8 Este 0 -- -- 100
2020-01-23 06:00:00 0.9 0 Calma 4 Este 0 -- -- 100
2020-01-23 05:00:00 1.1 0 Calma 6 Nordeste 0 -- -- 100
2020-01-23 04:00:00 1.1 2 Nordeste 5 Este 0 -- -- 100
2020-01-23 03:00:00 1.1 0 Calma 5 Nordeste 0 -- -- 99
2020-01-23 02:00:00 1.1 3 Sudeste 8 Nordeste 0 -- -- 99
2020-01-23 01:00:00 1.1 2 Sudeste 7 Sudeste 0 -- -- 99
2020-01-23 00:00:00 1.2 2 Este 5 Nordeste 0 -- -- 99
2020-01-22 23:00:00 1.3 0 Calma 4 Este 0 -- -- 99
2020-01-22 22:00:00 1.3 2 Nordeste 5 Sudeste 0 -- -- 99
2020-01-22 21:00:00 1.4 2 Nordeste 4 Norte 0 -- -- 98
2020-01-22 20:00:00 1.6 0 Calma 5 Este 0 -- -- 98
2020-01-22 19:00:00 1.9 2 Este 5 Este 0 -- -- 96
2020-01-22 18:00:00 2.5 0 Calma 5 Sudoeste 0 -- -- 96
2020-01-22 17:00:00 3 0 Calma 6 Norte 0 -- -- 95
2020-01-22 16:00:00 3.3 2 Nordeste 6 Nordeste 0 -- -- 94
2020-01-22 15:00:00 3.3 3 Oeste 6 Oeste 0 -- -- 93
2020-01-22 14:00:00 3.6 0 Calma 13 Nordeste 0 -- -- 92
2020-01-22 13:00:00 3.1 3 Oeste 11 Nordeste 0 -- -- 94
2020-01-22 12:00:00 2.3 4 Nordeste 18 Este 0 -- -- 98
2020-01-22 11:00:00 2.4 5 Nordeste 12 Nordeste 0 -- -- 99
2020-01-22 10:00:00 1.5 2 Sudoeste 4 Sudeste 0 -- -- 98
2020-01-22 09:00:00 1.3 3 Sur 8 Oeste 0 -- -- 99
2020-01-22 08:00:00 1.1 2 Sudoeste 6 Sudoeste 0 -- -- 98
2020-01-22 07:00:00 1.6 5 Sudoeste 8 Sudoeste 0 -- -- 98
2020-01-22 06:00:00 1.2 0 Calma 6 Sudoeste 0 -- -- 98
2020-01-22 05:00:00 1.1 0 Calma 5 Oeste 0 -- -- 98
2020-01-22 04:00:00 1.1 0 Calma 7 Sudoeste 0 -- -- 97
2020-01-22 03:00:00 1.2 3 Nordeste 7 Nordeste 0 -- -- 97
2020-01-22 02:00:00 0.8 0 Calma 6 Norte 0 -- -- 97
2020-01-22 01:00:00 0.8 3 Sudoeste 4 Oeste 0 -- -- 97
2020-01-22 00:00:00 0.6 2 Sudoeste 4 Sur 1.4 -- -- 98
2020-01-21 23:00:00 0.4 0 Calma 4 Oeste 5.2 -- -- 97
2020-01-21 22:00:00 0.5 0 Calma 4 Oeste 6 -- -- 97
2020-01-21 21:00:00 0.5 2 Sudoeste 6 Norte 7 -- -- 97
2020-01-21 20:00:00 0.8 0 Calma 5 Oeste 6.2 -- -- 96
2020-01-21 19:00:00 1.1 3 Nordeste 12 Nordeste 6.6 -- -- 97
2020-01-21 18:00:00 0.9 3 Sudoeste 22 Nordeste 4.6 -- -- 94
2020-01-21 17:00:00 1.9 8 Nordeste 31 Nordeste 5 -- -- 92
2020-01-21 16:00:00 1.9 8 Norte 24 Nordeste 3 -- -- 93
2020-01-21 15:00:00 0.9 0 Calma 12 Norte 4.2 -- -- 94
2020-01-21 14:00:00 1.3 5 Norte 12 Nordeste 1.6 -- -- 94
2020-01-21 13:00:00 1 3 Sudoeste 17 Norte 0.8 -- -- 93
2020-01-21 12:00:00 0.7 0 Calma 17 Norte 3 -- -- 95
2020-01-21 11:00:00 1 4 Norte 21 Nordeste 1.2 -- -- 93
2020-01-21 10:00:00 0.2 5 Nordeste 16 Norte 1.6 -- -- 95
2020-01-21 09:00:00 -0.2 4 Nordeste 16 Norte 2.4 -- -- 96
2020-01-21 08:00:00 -0.5 3 Norte 15 Norte 0.6 -- -- 96
2020-01-21 07:00:00 -0.6 5 Norte 25 Nordeste 1.2 -- -- 96
2020-01-21 06:00:00 -0.8 4 Norte 11 Norte 0.6 -- -- 94
2020-01-21 05:00:00 -0.6 4 Norte 12 Noroeste 0.2 -- -- 93
2020-01-21 04:00:00 -0.7 4 Noroeste 13 Oeste 0.8 -- -- 96
2020-01-21 03:00:00 -1 5 Norte 14 Noroeste 1.2 -- -- 94
2020-01-21 02:00:00 -1 5 Norte 19 Oeste 0.2 -- -- 92
2020-01-21 01:00:00 -1.1 5 Noroeste 18 Oeste 0.2 -- -- 92
2020-01-21 00:00:00 -1 3 Noroeste 21 Norte 0.6 -- -- 94
2020-01-20 23:00:00 -1.2 6 Nordeste 18 Nordeste 0.8 -- -- 93
2020-01-20 22:00:00 -1.3 4 Nordeste 18 Norte 0.6 -- -- 93
2020-01-20 21:00:00 -0.9 7 Nordeste 16 Nordeste 0.4 -- -- 91
2020-01-20 20:00:00 -1.1 5 Nordeste 24 Norte 0.4 -- -- 92
2020-01-20 19:00:00 -1 9 Norte 28 Norte 0.6 -- -- 91
2020-01-20 18:00:00 -1.1 6 Nordeste 23 Nordeste 0.6 -- -- 91
2020-01-20 17:00:00 -0.8 5 Norte 23 Noroeste 0.6 -- -- 89
2020-01-20 16:00:00 -0.9 7 Norte 24 Nordeste 0.6 -- -- 90
2020-01-20 15:00:00 -0.8 8 Nordeste 29 Nordeste 0.4 -- -- 88
2020-01-20 14:00:00 -1 9 Nordeste 24 Norte 0.4 -- -- 86
2020-01-20 13:00:00 -0.7 9 Nordeste 31 Norte 0 -- -- 84
2020-01-20 12:00:00 -0.7 12 Nordeste 23 Nordeste 0 -- -- 79
2020-01-20 11:00:00 -0.5 7 Nordeste 24 Nordeste 0 -- -- 74
2020-01-20 10:00:00 -0.7 7 Nordeste 21 Norte 0 -- -- 66
2020-01-20 09:00:00 -1.1 9 Nordeste 20 Nordeste 0 -- -- 66
2020-01-20 08:00:00 -1.2 2 Nordeste 18 Norte 0 -- -- 68
2020-01-20 07:00:00 -1.2 4 Nordeste 11 Nordeste 0 -- -- 68
2020-01-20 06:00:00 -1.2 3 Norte 12 Norte 0 -- -- 70
2020-01-20 05:00:00 -1.4 3 Norte 9 Norte 0 -- -- 72
2020-01-20 04:00:00 -1.4 4 Norte 17 Norte 0 -- -- 72
2020-01-20 03:00:00 -1.3 8 Nordeste 23 Norte 0 -- -- 71
2020-01-20 02:00:00 -1.1 4 Nordeste 15 Nordeste 0 -- -- 70
2020-01-20 01:00:00 -0.8 3 Norte 12 Norte 0 -- -- 70
2020-01-20 00:00:00 -0.3 4 Nordeste 15 Norte 0 -- -- 68
2020-01-19 23:00:00 0.1 4 Norte 17 Nordeste 0 -- -- 65
2020-01-19 22:00:00 0.5 4 Nordeste 16 Nordeste 0 -- -- 63
2020-01-19 21:00:00 0.9 4 Nordeste 23 Norte 0 -- -- 63
2020-01-19 20:00:00 1.2 5 Nordeste 24 Norte 0 -- -- 62
2020-01-19 19:00:00 1.7 6 Norte 23 Norte 0 -- -- 61
2020-01-19 18:00:00 3.1 6 Norte 22 Nordeste 0 -- -- 59
2020-01-19 17:00:00 4.6 10 Norte 23 Norte 0 -- -- 60
2020-01-19 16:00:00 4.3 4 Norte 22 Noroeste 0 -- -- 68
2020-01-19 15:00:00 4.1 8 Norte 24 Noroeste 0 -- -- 72
2020-01-19 14:00:00 3.6 9 Norte 28 Norte 0 -- -- 79
2020-01-19 13:00:00 2.5 4 Noroeste 14 Norte 0.6 -- -- 90
2020-01-19 12:00:00 2.5 8 Norte 22 Nordeste 1.4 -- -- 91
2020-01-19 11:00:00 3.2 7 Norte 25 Noroeste 0.4 -- -- 91
2020-01-19 10:00:00 3.3 8 Norte 19 Norte 0.2 -- -- 92
2020-01-19 09:00:00 3.4 4 Nordeste 12 Norte 0 -- -- 92
2020-01-19 08:00:00 3.3 3 Norte 9 Norte 0.2 -- -- 95
2020-01-19 07:00:00 3.1 3 Oeste 5 Sudoeste 0.4 -- -- 95
2020-01-19 06:00:00 3.2 0 Calma 5 Nordeste 0.4 -- -- 95
2020-01-19 05:00:00 3.3 0 Calma 3 Este 0 -- -- 94
2020-01-19 04:00:00 3.3 0 Calma 8 Sudoeste 0 -- -- 92
2020-01-19 03:00:00 3.2 0 Calma 9 Nordeste 0 -- -- 91
2020-01-19 02:00:00 3.9 4 Nordeste 11 Nordeste 0 -- -- 89
2020-01-19 01:00:00 4.7 0 Calma 13 Sudoeste 0.2 -- -- 88
2020-01-19 00:00:00 4.9 4 Nordeste 11 Nordeste 0 -- -- 89
2020-01-18 23:00:00 4.9 3 Sur 25 Oeste 1.2 -- -- 88
2020-01-18 22:00:00 7.3 16 Oeste 40 Oeste 0.2 -- -- 78
2020-01-18 21:00:00 9.1 2 Sudeste 17 Oeste 0 -- -- 77
2020-01-18 20:00:00 9.5 5 Sudoeste 15 Sur 0 -- -- 72
2020-01-18 19:00:00 9.4 3 Norte 11 Oeste 0 -- -- 71
2020-01-18 18:00:00 9.7 5 Sudeste 34 Oeste 0 -- -- 69
2020-01-18 17:00:00 10.5 14 Oeste 34 Sudoeste 0 -- -- 65
2020-01-18 16:00:00 10 13 Sudoeste 27 Oeste 0 -- -- 66
2020-01-18 15:00:00 9.6 4 Sudoeste 27 Oeste 0 -- -- 66
2020-01-18 14:00:00 9.9 13 Oeste 29 Sudoeste 0 -- -- 65
2020-01-18 13:00:00 9.7 11 Oeste 28 Sudoeste 0 -- -- 64
2020-01-18 12:00:00 8 0 Calma 21 Sudoeste 0 -- -- 69
2020-01-18 11:00:00 5.9 7 Sudoeste 15 Oeste 0 -- -- 75
2020-01-18 10:00:00 2.8 3 Este 8 Oeste 0 -- -- 80
2020-01-18 09:00:00 2.1 3 Oeste 9 Oeste 0 -- -- 79
2020-01-18 08:00:00 2.1 5 Sudoeste 15 Sudoeste 0 -- -- 79
2020-01-18 07:00:00 0.2 0 Calma 8 Este 0 -- -- 88
2020-01-18 06:00:00 -0.5 3 Este 6 Nordeste 0 -- -- 89
2020-01-18 05:00:00 -1.3 3 Este 7 Sudeste 0 -- -- 90
2020-01-18 04:00:00 -2.3 4 Este 8 Nordeste 0 -- -- 90
2020-01-18 03:00:00 -2.3 0 Calma 9 Este 0 -- -- 89
2020-01-18 02:00:00 -1.9 2 Este 8 Sudeste 0 -- -- 88
2020-01-18 01:00:00 -1.3 3 Este 7 Este 0 -- -- 87
2020-01-18 00:00:00 -0.7 3 Nordeste 10 Nordeste 0 -- -- 83
2020-01-17 23:00:00 0.3 4 Nordeste 10 Este 0 -- -- 80
2020-01-17 22:00:00 1.6 3 Este 10 Oeste 0 -- -- 74
2020-01-17 21:00:00 5.2 6 Oeste 13 Oeste 0 -- -- 65
2020-01-17 20:00:00 6.1 2 Norte 12 Sudoeste 0 -- -- 60
2020-01-17 19:00:00 7.5 5 Sur 24 Oeste 0 -- -- 56
2020-01-17 18:00:00 8.7 7 Sudoeste 24 Sudoeste 0 -- -- 53
2020-01-17 17:00:00 9.7 8 Sudoeste 28 Sudoeste 0 -- -- 50
2020-01-17 16:00:00 10.3 9 Oeste 33 Oeste 0 -- -- 53
2020-01-17 15:00:00 10.3 15 Sudoeste 32 Sudoeste 0 -- -- 58
2020-01-17 14:00:00 9.6 17 Sudoeste 36 Oeste 0 -- -- 60
2020-01-17 13:00:00 9.1 14 Sudoeste 35 Sudoeste 0 -- -- 64
2020-01-17 12:00:00 9.2 14 Oeste 31 Sudoeste 0 -- -- 67
2020-01-17 11:00:00 8.2 12 Sudoeste 24 Sudoeste 0 -- -- 68
2020-01-17 10:00:00 6.8 2 Norte 15 Nordeste 0 -- -- 73
2020-01-17 09:00:00 4.6 3 Este 9 Este 0 -- -- 80
2020-01-17 08:00:00 4.9 3 Nordeste 9 Norte 0 -- -- 77
2020-01-17 07:00:00 5 5 Nordeste 12 Norte 0 -- -- 74
2020-01-17 06:00:00 7.5 5 Oeste 27 Sudoeste 0 -- -- 65
2020-01-17 05:00:00 6 5 Sudoeste 17 Sudoeste 0 -- -- 68
2020-01-17 04:00:00 7.2 4 Sudoeste 14 Sur 0 -- -- 63
2020-01-17 03:00:00 6.3 4 Sudoeste 11 Oeste 0 -- -- 72
2020-01-17 02:00:00 6 6 Sudoeste 20 Sur 0 -- -- 74
2020-01-17 01:00:00 3.2 3 Nordeste 8 Sudeste 0 -- -- 86
2020-01-17 00:00:00 2.9 3 Nordeste 7 Nordeste 0 -- -- 87
2020-01-16 23:00:00 2.2 3 Este 6 Este 0 -- -- 87
2020-01-16 22:00:00 2.5 2 Nordeste 10 Norte 0 -- -- 84
2020-01-16 21:00:00 3.7 3 Este 7 Este 0 -- -- 81
2020-01-16 20:00:00 5.6 3 Este 6 Nordeste 0 -- -- 74
2020-01-16 19:00:00 9.7 5 Sudoeste 10 Sudoeste 0 -- -- 63
2020-01-16 18:00:00 11.6 2 Sudoeste 16 Sudoeste 0 -- -- 60
2020-01-16 17:00:00 13 5 Sudoeste 21 Sudoeste 0 -- -- 56
2020-01-16 16:00:00 14 13 Oeste 31 Sudoeste 0 -- -- 53
2020-01-16 15:00:00 13 12 Sudoeste 24 Sudoeste 0 -- -- 58
2020-01-16 14:00:00 12.4 3 Oeste 14 Sudeste 0 -- -- 61
2020-01-16 13:00:00 12.6 6 Sudoeste 22 Sur 0 -- -- 61
2020-01-16 12:00:00 9.1 4 Sudoeste 15 Sudoeste 0 -- -- 72
2020-01-16 11:00:00 6.2 5 Oeste 11 Sudoeste 0 -- -- 82
2020-01-16 10:00:00 1.9 5 Oeste 12 Sudoeste 0 -- -- 99
2020-01-16 09:00:00 -0.9 2 Este 5 Sudeste 0 -- -- 95
2020-01-16 08:00:00 -1 0 Calma 4 Sudoeste 0 -- -- 94
2020-01-16 07:00:00 -0.3 2 Sudeste 6 Oeste 0 -- -- 94
2020-01-16 06:00:00 0.5 0 Calma 8 Nordeste 0 -- -- 95
2020-01-16 05:00:00 0.4 3 Nordeste 6 Este 0 -- -- 95
2020-01-16 04:00:00 0.6 3 Nordeste 8 Este 0 -- -- 93
2020-01-16 03:00:00 1.4 4 Nordeste 8 Nordeste 0 -- -- 93
2020-01-16 02:00:00 2 0 Calma 8 Este 0 -- -- 93
2020-01-16 01:00:00 2.1 4 Nordeste 14 Nordeste 0 -- -- 91
2020-01-16 00:00:00 3.2 4 Nordeste 11 Este 0 -- -- 87
2020-01-15 23:00:00 4.1 3 Nordeste 15 Nordeste 0 -- -- 86
2020-01-15 22:00:00 6.4 6 Nordeste 20 Sudoeste 0 -- -- 77
2020-01-15 21:00:00 7.6 2 Sur 18 Sur 0 -- -- 76
2020-01-15 20:00:00 8.6 5 Oeste 21 Oeste 0 -- -- 72
2020-01-15 19:00:00 8.8 2 Sudeste 16 Noroeste 0 -- -- 70
2020-01-15 18:00:00 9.2 2 Este 12 Sudoeste 0 -- -- 66
2020-01-15 17:00:00 11.1 6 Sudoeste 28 Oeste 0 -- -- 59
2020-01-15 16:00:00 12.4 15 Sudoeste 32 Sudoeste 0 -- -- 55
2020-01-15 15:00:00 12.8 12 Oeste 28 Sudoeste 0 -- -- 54
2020-01-15 14:00:00 10.8 14 Sudoeste 33 Oeste 0 -- -- 57
2020-01-15 13:00:00 9.5 3 Sudeste 11 Sur 0 -- -- 62
2020-01-15 12:00:00 6.8 0 Calma 10 Sudeste 0 -- -- 72
2020-01-15 11:00:00 4.5 0 Calma 8 Este 0 -- -- 83
2020-01-15 10:00:00 1.9 3 Este 10 Norte 0 -- -- 86
2020-01-15 09:00:00 1.3 3 Sudeste 11 Nordeste 0 -- -- 82
2020-01-15 08:00:00 0.6 3 Sur 14 Este 0 -- -- 87
2020-01-15 07:00:00 1 3 Oeste 14 Sudoeste 0 -- -- 84
2020-01-15 06:00:00 0.5 4 Oeste 14 Sudoeste 0 -- -- 84
2020-01-15 05:00:00 -0.6 0 Calma 9 Noroeste 0 -- -- 86
2020-01-15 04:00:00 0.2 5 Sudoeste 13 Sur 0 -- -- 85
2020-01-15 03:00:00 -0.8 4 Este 13 Nordeste 0 -- -- 89
2020-01-15 02:00:00 -0.4 5 Nordeste 11 Nordeste 0 -- -- 88
2020-01-15 01:00:00 -0.7 3 Este 9 Este 0 -- -- 88
2020-01-15 00:00:00 -2.1 4 Nordeste 10 Sudoeste 0 -- -- 88
2020-01-14 23:00:00 -2.1 4 Este 10 Este 0 -- -- 89
2020-01-14 22:00:00 -1.9 2 Este 9 Sudeste 0 -- -- 86
2020-01-14 21:00:00 -1.3 3 Este 6 Nordeste 0 -- -- 83
2020-01-14 20:00:00 0.2 3 Nordeste 7 Este 0 -- -- 80
2020-01-14 19:00:00 2.6 3 Este 8 Este 0 -- -- 75
2020-01-14 18:00:00 5.4 2 Sudeste 8 Norte 0 -- -- 66
2020-01-14 17:00:00 7.6 3 Sudoeste 14 Sudoeste 0 -- -- 60
2020-01-14 16:00:00 8.7 6 Sudoeste 22 Oeste 0 -- -- 56
2020-01-14 15:00:00 9.5 6 Oeste 22 Oeste 0 -- -- 54
2020-01-14 14:00:00 8.2 8 Oeste 17 Oeste 0 -- -- 58
2020-01-14 13:00:00 6.1 6 Oeste 14 Oeste 0 -- -- 63
2020-01-14 12:00:00 2.5 3 Oeste 6 Oeste 0 -- -- 63
2020-01-14 11:00:00 -0.9 0 Calma 4 Sur 0 -- -- 69
2020-01-14 10:00:00 -4 0 Calma 4 Este 0 -- -- 84
2020-01-14 09:00:00 -5.2 2 Este 5 Sudeste 0 -- -- 86
2020-01-14 08:00:00 -4.5 0 Calma 7 Este 0 -- -- 83
2020-01-14 07:00:00 -3 0 Calma 9 Sudoeste 0 -- -- 79
2020-01-14 06:00:00 -3.8 2 Nordeste 8 Nordeste 0 -- -- 84
2020-01-14 05:00:00 -3.3 0 Calma 8 Nordeste 0 -- -- 82
2020-01-14 04:00:00 -3 3 Este 8 Este 0 -- -- 79
2020-01-14 03:00:00 -2.2 3 Este 8 Sudeste 0 -- -- 75
2020-01-14 02:00:00 -1.3 3 Este 10 Nordeste 0 -- -- 71
2020-01-14 01:00:00 0.3 4 Este 13 Sudoeste 0 -- -- 65
2020-01-14 00:00:00 2 3 Este 10 Oeste 0 -- -- 58
2020-01-13 23:00:00 3.8 0 Calma 22 Sudoeste 0 -- -- 52
2020-01-13 22:00:00 4.1 6 Sudoeste 21 Sudoeste 0 -- -- 49
2020-01-13 21:00:00 0.8 3 Este 13 Nordeste 0 -- -- 62
2020-01-13 20:00:00 1.3 4 Este 9 Nordeste 0 -- -- 62
2020-01-13 19:00:00 3.1 4 Este 9 Este 0 -- -- 59
2020-01-13 18:00:00 6.4 2 Este 7 Sudoeste 0 -- -- 51
2020-01-13 17:00:00 9.1 3 Sudeste 8 Sudoeste 0 -- -- 43
2020-01-13 16:00:00 10 3 Sudoeste 9 Sudoeste 0 -- -- 40
2020-01-13 15:00:00 10.4 3 Sudoeste 19 Sudoeste 0 -- -- 37
2020-01-13 14:00:00 9.5 9 Sudoeste 16 Sudoeste 0 -- -- 37
2020-01-13 13:00:00 6.5 4 Oeste 14 Sudoeste 0 -- -- 40
2020-01-13 12:00:00 3.4 6 Oeste 12 Sudoeste 0 -- -- 49
2020-01-13 11:00:00 -1 0 Calma 4 Sudoeste 0 -- -- 66
2020-01-13 10:00:00 -5 0 Calma 5 Este 0 -- -- 83
2020-01-13 09:00:00 -7.1 0 Calma 6 Este 0 -- -- 85
2020-01-13 08:00:00 -7.3 2 Nordeste 5 Nordeste 0 -- -- 85
2020-01-13 07:00:00 -7.4 2 Este 6 Nordeste 0 -- -- 85
2020-01-13 06:00:00 -7.3 0 Calma 6 Nordeste 0 -- -- 86
2020-01-13 05:00:00 -7.1 0 Calma 4 Este 0 -- -- 84
2020-01-13 04:00:00 -6.8 0 Calma 5 Nordeste 0 -- -- 85
2020-01-13 03:00:00 -6.4 2 Este 4 Nordeste 0 -- -- 84
2020-01-13 02:00:00 -6 2 Este 5 Este 0 -- -- 84
2020-01-13 01:00:00 -5.5 3 Este 5 Nordeste 0 -- -- 83
2020-01-13 00:00:00 -5 3 Este 5 Este 0 -- -- 82
2020-01-12 23:00:00 -4.2 0 Calma 4 Este 0 -- -- 81
2020-01-12 22:00:00 -3.4 3 Este 5 Nordeste 0 -- -- 79
2020-01-12 21:00:00 -2.5 0 Calma 6 Nordeste 0 -- -- 75
2020-01-12 20:00:00 -1.3 3 Este 9 Nordeste 0 -- -- 71
2020-01-12 19:00:00 0.8 2 Este 8 Nordeste 0 -- -- 63
2020-01-12 18:00:00 4.2 3 Este 6 Sudoeste 0 -- -- 52
2020-01-12 17:00:00 8 5 Sudoeste 10 Sudoeste 0 -- -- 39
2020-01-12 16:00:00 9.4 4 Oeste 14 Sudoeste 0 -- -- 33
2020-01-12 15:00:00 9.5 5 Sudoeste 10 Sudoeste 0 -- -- 39
2020-01-12 14:00:00 7.7 3 Sudoeste 10 Sudoeste 0 -- -- 44
2020-01-12 13:00:00 4.2 3 Sudoeste 4 Sudoeste 0 -- -- 55
2020-01-12 12:00:00 0.2 2 Sudoeste 6 Sudoeste 0 -- -- 72
2020-01-12 11:00:00 -3.2 2 Oeste 4 Sudoeste 0 -- -- 84
2020-01-12 10:00:00 -6.3 0 Calma 5 Este 0 -- -- 91
2020-01-12 09:00:00 -7.9 2 Este 5 Nordeste 0 -- -- 87
2020-01-12 08:00:00 -7.8 0 Calma 5 Nordeste 0 -- -- 87
2020-01-12 07:00:00 -7.6 3 Este 8 Sudeste 0 -- -- 88
2020-01-12 06:00:00 -7.3 0 Calma 7 Sudeste 0 -- -- 87
2020-01-12 05:00:00 -6.9 2 Nordeste 5 Nordeste 0 -- -- 88
2020-01-12 04:00:00 -6.5 0 Calma 4 Nordeste 0 -- -- 88
2020-01-12 03:00:00 -6.2 2 Este 5 Este 0 -- -- 88
2020-01-12 02:00:00 -5.7 0 Calma 6 Nordeste 0 -- -- 88
2020-01-12 01:00:00 -5.1 2 Este 5 Este 0 -- -- 88
2020-01-12 00:00:00 -4.4 0 Calma 6 Sudeste 0 -- -- 87
2020-01-11 23:00:00 -3.7 2 Este 7 Nordeste 0 -- -- 86
2020-01-11 22:00:00 -3 2 Este 6 Nordeste 0 -- -- 84
2020-01-11 21:00:00 -2.2 2 Este 6 Sudeste 0 -- -- 82
2020-01-11 20:00:00 -1.1 2 Nordeste 7 Este 0 -- -- 78
2020-01-11 19:00:00 1 3 Este 8 Este 0 -- -- 72
2020-01-11 18:00:00 5.1 2 Este 10 Sudoeste 0 -- -- 62
2020-01-11 17:00:00 8 5 Sudoeste 14 Oeste 0 -- -- 53
2020-01-11 16:00:00 9.4 6 Sudoeste 16 Oeste 0 -- -- 48
2020-01-11 15:00:00 10.3 4 Sudoeste 16 Sudoeste 0 -- -- 51
2020-01-11 14:00:00 8.4 5 Sudoeste 9 Sudoeste 0 -- -- 57
2020-01-11 13:00:00 5.1 0 Calma 6 Sur 0 -- -- 71
2020-01-11 12:00:00 1.6 0 Calma 4 Sudoeste 0 -- -- 84
2020-01-11 11:00:00 -1.2 0 Calma 3 Sudeste 0 -- -- 92
2020-01-11 10:00:00 -4 0 Calma 4 Sudeste 0 -- -- 93
2020-01-11 09:00:00 -5.2 0 Calma 5 Norte 0 -- -- 91
2020-01-11 08:00:00 -4.8 0 Calma 5 Nordeste 0 -- -- 90
2020-01-11 07:00:00 -4.4 0 Calma 5 Este 0 -- -- 91
2020-01-11 06:00:00 -3.8 2 Este 5 Nordeste 0 -- -- 91
2020-01-11 05:00:00 -3.2 0 Calma 6 Nordeste 0 -- -- 92
2020-01-11 04:00:00 -2.6 3 Este 6 Este 0 -- -- 91
2020-01-11 03:00:00 -1.9 3 Nordeste 8 Norte 0 -- -- 91
2020-01-11 02:00:00 -0.9 5 Nordeste 9 Nordeste 0 -- -- 90
2020-01-11 01:00:00 0.7 2 Nordeste 6 Nordeste 0 -- -- 88
2020-01-11 00:00:00 2 0 Calma 5 Nordeste 0 -- -- 86
2020-01-10 23:00:00 2.6 0 Calma 6 Nordeste 0 -- -- 84
2020-01-10 22:00:00 3.2 2 Norte 11 Norte 0 -- -- 80
2020-01-10 21:00:00 3.8 3 Norte 12 Nordeste 0 -- -- 77
2020-01-10 20:00:00 5.3 3 Nordeste 17 Nordeste 0 -- -- 72
2020-01-10 19:00:00 6 5 Noroeste 24 Norte 0 -- -- 70
2020-01-10 18:00:00 6.4 5 Norte 22 Norte 0 -- -- 69
2020-01-10 17:00:00 7.2 4 Este 28 Norte 0 -- -- 65
2020-01-10 16:00:00 8 8 Norte 36 Norte 0 -- -- 61
2020-01-10 15:00:00 7.3 10 Norte 31 Norte 0 -- -- 63
2020-01-10 14:00:00 7.1 8 Noroeste 29 Norte 0 -- -- 64
2020-01-10 13:00:00 6.4 5 Noroeste 25 Oeste 0 -- -- 67
2020-01-10 12:00:00 5.9 6 Norte 26 Nordeste 0 -- -- 70
2020-01-10 11:00:00 4.5 9 Noroeste 26 Noroeste 0 -- -- 79
2020-01-10 10:00:00 3.2 5 Oeste 13 Oeste 0 -- -- 90
2020-01-10 09:00:00 0.7 4 Sur 9 Oeste 0 -- -- 95
2020-01-10 08:00:00 1.2 2 Nordeste 8 Norte 0 -- -- 93
2020-01-10 07:00:00 3.1 2 Este 8 Oeste 0 -- -- 90
2020-01-10 06:00:00 4.6 5 Sudoeste 10 Sudoeste 0.8 -- -- 87
2020-01-10 05:00:00 5.4 6 Norte 26 Norte 0 -- -- 80
2020-01-10 04:00:00 5.5 11 Nordeste 24 Nordeste 0 -- -- 85
2020-01-10 03:00:00 5.7 12 Nordeste 23 Nordeste 0 -- -- 86
2020-01-10 02:00:00 3.8 4 Nordeste 8 Nordeste 0 -- -- 88
2020-01-10 01:00:00 4.2 0 Calma 6 Norte 0 -- -- 87
2020-01-10 00:00:00 4 0 Calma 8 Este 0 -- -- 86
2020-01-09 23:00:00 4.5 0 Calma 12 Norte 0 -- -- 85
2020-01-09 22:00:00 4.3 0 Calma 4 Sudeste 0 -- -- 84
2020-01-09 21:00:00 4.7 0 Calma 5 Sudeste 0 -- -- 82
2020-01-09 20:00:00 4.3 2 Este 6 Nordeste 0 -- -- 81
2020-01-09 19:00:00 6 3 Este 6 Norte 0 -- -- 75
2020-01-09 18:00:00 9.4 3 Este 10 Sudoeste 0 -- -- 66
2020-01-09 17:00:00 12.5 7 Sudoeste 19 Oeste 0 -- -- 55
2020-01-09 16:00:00 14.2 10 Oeste 17 Oeste 0 -- -- 51
2020-01-09 15:00:00 15.1 4 Sur 14 Sur 0 -- -- 48
2020-01-09 14:00:00 12.6 0 Calma 6 Oeste 0 -- -- 57
2020-01-09 13:00:00 8 4 Oeste 12 Oeste 0 -- -- 73
2020-01-09 12:00:00 4.7 5 Oeste 8 Sudoeste 0 -- -- 83
2020-01-09 11:00:00 1.7 0 Calma 8 Oeste 0 -- -- 94
2020-01-09 10:00:00 -1.1 0 Calma 4 Sudeste 0 -- -- 97
2020-01-09 09:00:00 -2.5 0 Calma 5 Este 0 -- -- 97
2020-01-09 08:00:00 -2.3 2 Este 4 Sudeste 0 -- -- 96
2020-01-09 07:00:00 -1.6 0 Calma 8 Oeste 0 -- -- 94
2020-01-09 06:00:00 -0.7 4 Oeste 8 Oeste 0 -- -- 97
2020-01-09 05:00:00 -1.3 0 Calma 6 Nordeste 0 -- -- 94
2020-01-09 04:00:00 -1 0 Calma 4 Nordeste 0 -- -- 94
2020-01-09 03:00:00 -0.4 0 Calma 4 Nordeste 0 -- -- 94
2020-01-09 02:00:00 0 2 Este 5 Sudeste 0 -- -- 94
2020-01-09 01:00:00 0.3 3 Este 6 Norte 0 -- -- 94
2020-01-09 00:00:00 0.2 3 Este 7 Este 0 -- -- 93
2020-01-08 23:00:00 0.8 2 Este 5 Nordeste 0 -- -- 91
2020-01-08 22:00:00 1.6 3 Este 8 Nordeste 0 -- -- 91
2020-01-08 21:00:00 2.9 0 Calma 7 Este 0 -- -- 88
2020-01-08 20:00:00 4.4 2 Este 7 Este 0 -- -- 86
2020-01-08 19:00:00 6.4 0 Calma 6 Este 0 -- -- 80
2020-01-08 18:00:00 8.7 4 Este 6 Nordeste 0 -- -- 69
2020-01-08 17:00:00 11.3 0 Calma 9 Este 0 -- -- 62
2020-01-08 16:00:00 13.1 4 Nordeste 12 Este 0 -- -- 57
2020-01-08 15:00:00 14.2 0 Calma 12 Sudeste 0 -- -- 55
2020-01-08 14:00:00 12.5 3 Sur 8 Sur 0 -- -- 45
2020-01-08 13:00:00 9 0 Calma 4 Sudoeste 0 -- -- 50
2020-01-08 12:00:00 4.8 0 Calma 4 Oeste 0 -- -- 61
2020-01-08 11:00:00 2 2 Oeste 9 Sudoeste 0 -- -- 74
2020-01-08 10:00:00 -1.8 0 Calma 4 Este 0 -- -- 89
2020-01-08 09:00:00 -3 0 Calma 5 Nordeste 0 -- -- 89
2020-01-08 08:00:00 -2.9 0 Calma 5 Este 0 -- -- 88
2020-01-08 07:00:00 -2.7 0 Calma 5 Norte 0 -- -- 88
2020-01-08 06:00:00 -2.5 2 Este 8 Este 0 -- -- 87
2020-01-08 05:00:00 -2.5 0 Calma 6 Nordeste 0 -- -- 87
2020-01-08 04:00:00 -2.3 0 Calma 5 Nordeste 0 -- -- 86
2020-01-08 03:00:00 -2.3 2 Nordeste 5 Nordeste 0 -- -- 86
2020-01-08 02:00:00 -2 3 Este 8 Nordeste 0 -- -- 85
2020-01-08 01:00:00 -1.9 3 Este 5 Nordeste 0 -- -- 85
2020-01-08 00:00:00 -1.4 0 Calma 6 Sudeste 0 -- -- 83
2020-01-07 23:00:00 -1 2 Este 6 Este 0 -- -- 82
2020-01-07 22:00:00 -0.4 2 Este 6 Nordeste 0 -- -- 80
2020-01-07 21:00:00 0.5 3 Este 7 Este 0 -- -- 76
2020-01-07 20:00:00 1.5 3 Este 8 Nordeste 0 -- -- 72
2020-01-07 19:00:00 3.6 3 Este 7 Este 0 -- -- 65
2020-01-07 18:00:00 6.8 3 Nordeste 6 Este 0 -- -- 56
2020-01-07 17:00:00 10.6 3 Sudoeste 9 Sudoeste 0 -- -- 42
2020-01-07 16:00:00 13.1 4 Sudoeste 8 Sudoeste 0 -- -- 35
2020-01-07 15:00:00 14 0 Calma 7 Sudoeste 0 -- -- 35
2020-01-07 14:00:00 10.4 4 Sudoeste 8 Sudoeste 0 -- -- 42
2020-01-07 13:00:00 6.9 3 Sudoeste 8 Sudoeste 0 -- -- 54
2020-01-07 12:00:00 2.8 2 Sudeste 4 Oeste 0 -- -- 72
2020-01-07 11:00:00 -0.9 0 Calma 4 Sudeste 0 -- -- 86
2020-01-07 10:00:00 -4.3 0 Calma 4 Sudeste 0 -- -- 92
2020-01-07 09:00:00 -5.5 0 Calma 7 Nordeste 0 -- -- 90
2020-01-07 08:00:00 -5.4 0 Calma 5 Nordeste 0 -- -- 89
2020-01-07 07:00:00 -5.1 0 Calma 6 Nordeste 0 -- -- 90
2020-01-07 06:00:00 -4.8 2 Nordeste 4 Nordeste 0 -- -- 89
2020-01-07 05:00:00 -4.2 0 Calma 6 Nordeste 0 -- -- 89
2020-01-07 04:00:00 -3.7 2 Nordeste 5 Nordeste 0 -- -- 89
2020-01-07 03:00:00 -3.4 0 Calma 8 Este 0 -- -- 88
2020-01-07 02:00:00 -2.8 0 Calma 5 Nordeste 0 -- -- 88
2020-01-07 01:00:00 -2.4 3 Este 6 Este 0 -- -- 86
2020-01-07 00:00:00 -1.6 0 Calma 7 Este 0 -- -- 86
2020-01-06 23:00:00 -1.1 2 Nordeste 6 Nordeste 0 -- -- 84
2020-01-06 22:00:00 -0.4 2 Este 7 Este 0 -- -- 82
2020-01-06 21:00:00 0.4 3 Este 8 Este 0 -- -- 79
2020-01-06 20:00:00 1.6 3 Este 7 Este 0 -- -- 75
2020-01-06 19:00:00 3.7 3 Este 6 Nordeste 0 -- -- 68
2020-01-06 18:00:00 7 3 Este 5 Nordeste 0 -- -- 57
2020-01-06 17:00:00 11.1 0 Calma 10 Oeste 0 -- -- 46
2020-01-06 16:00:00 13.9 4 Sudoeste 10 Sudoeste 0 -- -- 38
2020-01-06 15:00:00 13.7 4 Sudoeste 11 Sudoeste 0 -- -- 40
2020-01-06 14:00:00 13 2 Sudoeste 4 Sudoeste 0 -- -- 44
2020-01-06 13:00:00 7.8 0 Calma 3 Sur 0 -- -- 58
2020-01-06 12:00:00 3.2 2 Sudoeste 4 Sudeste 0 -- -- 73
2020-01-06 11:00:00 0 0 Calma 3 Sudeste 0 -- -- 86
2020-01-06 10:00:00 -3.7 0 Calma 4 Nordeste 0 -- -- 93